createdAt,value
2023-03-30T00:00:49.083Z,10.14
2023-03-30T00:03:19.517Z,9.77
2023-03-30T00:05:50.202Z,9.64
2023-03-30T00:08:18.439Z,10.14
2023-03-30T00:10:46.383Z,10.38
2023-03-30T00:13:13.523Z,9.94
2023-03-30T00:15:41.323Z,10.58
2023-03-30T00:18:09.369Z,10.09
2023-03-30T00:20:37.641Z,10.31
2023-03-30T00:23:04.676Z,10.44
2023-03-30T00:25:31.623Z,10.45
2023-03-30T00:27:58.387Z,10.42
2023-03-30T00:30:25.292Z,10.21
2023-03-30T00:32:52.104Z,10.44
2023-03-30T00:35:19.730Z,10.47
2023-03-30T00:37:49.641Z,10.27
2023-03-30T00:40:20.704Z,10.35
2023-03-30T00:42:48.624Z,10.19
2023-03-30T00:45:27.914Z,10.13
2023-03-30T00:48:18.989Z,10.50
2023-03-30T00:51:14.146Z,10.30
2023-03-30T00:53:51.094Z,9.89
2023-03-30T00:56:23.168Z,10.13
2023-03-30T00:58:50.551Z,9.83
2023-03-30T01:01:25.972Z,9.60
2023-03-30T01:03:53.861Z,9.57
2023-03-30T01:06:24.559Z,8.98
2023-03-30T01:08:53.263Z,9.49
2023-03-30T01:11:21.381Z,8.93
2023-03-30T01:13:51.123Z,9.80
2023-03-30T01:16:36.178Z,9.95
2023-03-30T01:19:16.541Z,10.12
2023-03-30T01:22:20.291Z,10.21
2023-03-30T01:25:03.077Z,10.01
2023-03-30T01:27:51.771Z,9.56
2023-03-30T01:30:49.743Z,9.50
2023-03-30T01:33:28.678Z,9.13
2023-03-30T01:36:31.292Z,9.07
2023-03-30T01:39:29.368Z,9.35
2023-03-30T01:41:59.196Z,9.15
2023-03-30T01:44:44.037Z,9.22
2023-03-30T01:47:28.835Z,8.91
2023-03-30T01:50:06.053Z,8.64
2023-03-30T01:52:41.353Z,8.00
2023-03-30T01:55:26.473Z,8.16
2023-03-30T01:57:59.173Z,8.98
2023-03-30T02:00:27.897Z,8.41
2023-03-30T02:03:00.692Z,8.46
2023-03-30T02:05:30.742Z,8.22
2023-03-30T02:08:03.373Z,8.48
2023-03-30T02:10:34.042Z,7.75
2023-03-30T02:13:01.808Z,8.72
2023-03-30T02:15:37.626Z,8.64
2023-03-30T02:18:05.085Z,8.25
2023-03-30T02:20:33.349Z,8.46
2023-03-30T02:23:01.638Z,8.45
2023-03-30T02:25:28.757Z,8.41
2023-03-30T02:27:56.545Z,8.38
2023-03-30T02:30:23.325Z,8.48
2023-03-30T02:32:55.022Z,8.43
2023-03-30T02:35:39.230Z,8.47
2023-03-30T02:38:32.795Z,8.61
2023-03-30T02:41:24.250Z,8.06
2023-03-30T02:44:11.252Z,8.62
2023-03-30T02:47:10.444Z,8.57
2023-03-30T02:49:55.406Z,7.74
2023-03-30T02:52:47.273Z,8.70
2023-03-30T02:55:20.879Z,8.79
2023-03-30T02:58:01.790Z,8.72
2023-03-30T03:00:51.580Z,8.78
2023-03-30T03:03:24.732Z,8.39
2023-03-30T03:05:54.072Z,8.91
2023-03-30T03:08:25.394Z,8.81
2023-03-30T03:10:52.375Z,8.55
2023-03-30T03:13:22.195Z,8.54
2023-03-30T03:15:49.833Z,8.49
2023-03-30T03:18:16.726Z,8.59
2023-03-30T03:20:43.548Z,8.09
2023-03-30T03:23:10.256Z,8.32
2023-03-30T03:25:37.232Z,8.31
2023-03-30T03:28:04.262Z,8.38
2023-03-30T03:30:31.036Z,7.74
2023-03-30T03:32:58.278Z,7.96
2023-03-30T03:35:25.248Z,8.22
2023-03-30T03:37:52.023Z,7.71
2023-03-30T03:40:18.855Z,7.27
2023-03-30T03:42:45.748Z,7.65
2023-03-30T03:45:12.797Z,7.85
2023-03-30T03:47:39.828Z,7.22
2023-03-30T03:50:10.010Z,8.02
2023-03-30T03:52:37.450Z,7.52
2023-03-30T03:55:05.228Z,7.77
2023-03-30T03:57:32.148Z,7.53
2023-03-30T04:00:00.107Z,6.84
2023-03-30T04:02:27.893Z,7.72
2023-03-30T04:04:55.909Z,7.14
2023-03-30T04:07:25.689Z,7.72
2023-03-30T04:09:52.716Z,7.02
2023-03-30T04:12:20.453Z,7.12
2023-03-30T04:14:47.432Z,7.68
2023-03-30T04:17:15.012Z,7.29
2023-03-30T04:19:42.172Z,7.59
2023-03-30T04:22:09.195Z,7.47
2023-03-30T04:24:36.085Z,7.51
2023-03-30T04:27:03.454Z,7.34
2023-03-30T04:29:30.986Z,6.82
2023-03-30T04:32:02.956Z,7.48
2023-03-30T04:34:31.365Z,7.10
2023-03-30T04:36:58.273Z,6.86
2023-03-30T04:39:25.418Z,7.48
2023-03-30T04:41:54.442Z,7.19
2023-03-30T04:44:22.224Z,7.39
2023-03-30T04:46:49.208Z,7.15
2023-03-30T04:49:16.109Z,7.26
2023-03-30T04:51:43.394Z,7.09
2023-03-30T04:54:10.253Z,6.95
2023-03-30T04:56:37.042Z,7.14
2023-03-30T04:59:03.766Z,6.79
2023-03-30T05:01:30.966Z,6.51
2023-03-30T05:03:57.786Z,6.26
2023-03-30T05:06:24.464Z,6.24
2023-03-30T05:08:51.660Z,6.79
2023-03-30T05:11:18.350Z,6.67
2023-03-30T05:13:45.035Z,6.45
2023-03-30T05:16:11.840Z,6.55
2023-03-30T05:18:39.396Z,6.54
2023-03-30T05:21:06.443Z,6.45
2023-03-30T05:23:33.344Z,6.31
2023-03-30T05:26:00.133Z,6.44
2023-03-30T05:28:26.921Z,6.72
2023-03-30T05:30:56.960Z,6.36
2023-03-30T05:33:24.363Z,6.40
2023-03-30T05:35:52.024Z,6.69
2023-03-30T05:38:18.718Z,6.24
2023-03-30T05:40:45.452Z,6.18
2023-03-30T05:43:12.472Z,6.61
2023-03-30T05:45:39.229Z,6.35
2023-03-30T05:48:07.288Z,5.46
2023-03-30T05:50:34.087Z,5.98
2023-03-30T05:53:01.141Z,6.61
2023-03-30T05:55:28.025Z,5.91
2023-03-30T05:57:54.888Z,6.65
2023-03-30T06:00:23.039Z,6.47
2023-03-30T06:02:49.922Z,6.58
2023-03-30T06:05:17.402Z,6.17
2023-03-30T06:07:45.805Z,6.25
2023-03-30T06:10:13.190Z,6.37
2023-03-30T06:12:40.202Z,6.32
2023-03-30T06:15:10.911Z,6.03
2023-03-30T06:17:37.942Z,6.49
2023-03-30T06:20:11.466Z,6.17
2023-03-30T06:22:41.521Z,6.07
2023-03-30T06:25:09.407Z,6.21
2023-03-30T06:27:37.491Z,6.22
2023-03-30T06:30:05.368Z,6.46
2023-03-30T06:32:32.186Z,6.39
2023-03-30T06:34:58.827Z,6.45
2023-03-30T06:37:25.493Z,6.08
2023-03-30T06:39:52.744Z,6.27
2023-03-30T06:42:19.524Z,6.43
2023-03-30T06:44:48.134Z,6.47
2023-03-30T06:47:16.540Z,6.45
2023-03-30T06:49:43.270Z,6.75
2023-03-30T06:52:11.510Z,6.99
2023-03-30T06:54:38.185Z,6.95
2023-03-30T06:57:04.902Z,6.86
2023-03-30T06:59:34.532Z,7.12
2023-03-30T07:02:01.584Z,7.35
2023-03-30T07:04:28.596Z,8.69
2023-03-30T07:06:57.849Z,9.20
2023-03-30T07:09:25.187Z,9.89
2023-03-30T07:11:53.890Z,10.52
2023-03-30T07:14:23.002Z,10.38
2023-03-30T07:16:49.777Z,10.67
2023-03-30T07:19:16.596Z,10.88
2023-03-30T07:21:43.539Z,10.53
2023-03-30T07:24:10.291Z,10.23
2023-03-30T07:26:37.141Z,10.53
2023-03-30T07:29:05.433Z,10.16
2023-03-30T07:31:32.273Z,10.45
2023-03-30T07:33:59.133Z,10.96
2023-03-30T07:36:25.858Z,10.76
2023-03-30T07:38:52.835Z,10.53
2023-03-30T07:41:19.871Z,10.85
2023-03-30T07:43:46.583Z,11.06
2023-03-30T07:46:13.427Z,10.83
2023-03-30T07:48:40.956Z,10.39
2023-03-30T07:51:13.687Z,10.55
2023-03-30T07:53:41.057Z,10.81
2023-03-30T07:56:08.274Z,11.36
2023-03-30T07:58:34.999Z,11.21
2023-03-30T08:01:03.360Z,11.61
2023-03-30T08:03:32.226Z,11.50
2023-03-30T08:06:01.221Z,11.95
2023-03-30T08:08:28.052Z,12.26
2023-03-30T08:10:54.881Z,12.51
2023-03-30T08:13:22.129Z,12.68
2023-03-30T08:15:50.751Z,12.18
2023-03-30T08:18:17.522Z,12.18
2023-03-30T08:20:44.526Z,12.30
2023-03-30T08:23:12.441Z,12.23
2023-03-30T08:25:39.062Z,11.79
2023-03-30T08:28:06.137Z,11.76
2023-03-30T08:30:35.667Z,11.92
2023-03-30T08:33:03.042Z,11.43
2023-03-30T08:35:29.732Z,11.23
2023-03-30T08:37:56.375Z,10.88
2023-03-30T08:40:23.635Z,10.73
2023-03-30T08:42:59.374Z,10.91
2023-03-30T08:45:33.485Z,10.51
2023-03-30T08:48:00.381Z,10.41
2023-03-30T08:50:34.242Z,10.57
2023-03-30T08:53:02.513Z,10.51
2023-03-30T08:56:07.834Z,10.86
2023-03-30T08:58:47.376Z,11.03
2023-03-30T09:01:34.754Z,11.31
2023-03-30T09:04:20.841Z,11.21
2023-03-30T09:06:53.858Z,11.63
2023-03-30T09:09:23.661Z,11.99
2023-03-30T09:11:58.112Z,11.83
2023-03-30T09:14:53.350Z,11.74
2023-03-30T09:17:25.523Z,12.01
2023-03-30T09:20:00.567Z,11.96
2023-03-30T09:22:34.233Z,11.83
2023-03-30T09:25:01.524Z,11.59
2023-03-30T09:27:33.982Z,11.49
2023-03-30T09:30:10.175Z,11.46
2023-03-30T09:32:46.803Z,11.21
2023-03-30T09:35:13.373Z,11.53
2023-03-30T09:37:40.028Z,11.74
2023-03-30T09:40:34.266Z,11.77
2023-03-30T09:43:27.032Z,12.01
2023-03-30T09:45:56.931Z,12.11
2023-03-30T09:48:23.630Z,11.76
2023-03-30T09:50:50.274Z,11.82
2023-03-30T09:53:29.526Z,12.41
2023-03-30T09:56:02.682Z,12.42
2023-03-30T09:58:36.296Z,12.62
2023-03-30T10:01:05.086Z,12.58
2023-03-30T10:03:32.780Z,13.01
2023-03-30T10:06:08.624Z,13.07
2023-03-30T10:08:43.369Z,13.18
2023-03-30T10:11:10.796Z,13.34
2023-03-30T10:13:41.791Z,13.01
2023-03-30T10:16:23.625Z,12.98
2023-03-30T10:18:54.404Z,13.29
2023-03-30T10:21:27.159Z,13.23
2023-03-30T10:24:12.638Z,13.37
2023-03-30T10:26:39.467Z,13.40
2023-03-30T10:29:08.059Z,13.50
2023-03-30T10:31:37.659Z,13.67
2023-03-30T10:34:14.279Z,13.89
2023-03-30T10:36:41.152Z,13.70
2023-03-30T10:39:33.916Z,13.93
2023-03-30T10:42:04.351Z,13.68
2023-03-30T10:44:37.084Z,13.85
2023-03-30T10:47:06.722Z,14.22
2023-03-30T10:50:06.048Z,14.07
2023-03-30T10:52:43.045Z,14.10
2023-03-30T10:55:29.063Z,14.17
2023-03-30T10:58:01.520Z,14.47
2023-03-30T11:00:56.346Z,14.42
2023-03-30T11:03:29.645Z,14.29
2023-03-30T11:06:05.380Z,14.80
2023-03-30T11:08:39.455Z,14.78
2023-03-30T11:11:07.622Z,14.81
2023-03-30T11:13:40.113Z,14.96
2023-03-30T11:16:39.338Z,15.42
2023-03-30T11:19:54.538Z,14.95
2023-03-30T11:22:34.485Z,15.37
2023-03-30T11:25:03.369Z,15.47
2023-03-30T11:27:33.985Z,15.74
2023-03-30T11:30:17.492Z,15.79
2023-03-30T11:32:53.137Z,16.34
2023-03-30T11:35:39.346Z,16.59
2023-03-30T11:38:16.163Z,16.42
2023-03-30T11:40:46.442Z,16.17
2023-03-30T11:43:15.825Z,16.48
2023-03-30T11:46:03.554Z,16.30
2023-03-30T11:48:58.659Z,16.29
2023-03-30T11:51:35.695Z,16.38
2023-03-30T11:54:36.257Z,15.90
2023-03-30T11:57:15.208Z,16.00
2023-03-30T11:59:54.105Z,15.88
2023-03-30T12:03:10.111Z,15.66
2023-03-30T12:05:43.489Z,15.23
2023-03-30T12:08:42.620Z,15.60
2023-03-30T12:11:12.230Z,15.75
2023-03-30T12:13:50.241Z,15.55
2023-03-30T12:16:27.575Z,16.06
2023-03-30T12:19:15.685Z,16.35
2023-03-30T12:22:14.056Z,16.58
2023-03-30T12:25:22.292Z,16.12
2023-03-30T12:27:58.752Z,16.06
2023-03-30T12:30:59.745Z,16.30
2023-03-30T12:33:43.812Z,16.09
2023-03-30T12:36:40.890Z,16.07
2023-03-30T12:39:32.187Z,16.30
2023-03-30T12:42:08.114Z,16.18
2023-03-30T12:44:39.358Z,15.88
2023-03-30T12:47:30.384Z,16.02
2023-03-30T12:50:25.517Z,16.27
2023-03-30T12:53:16.830Z,16.37
2023-03-30T12:55:55.733Z,16.29
2023-03-30T12:58:37.406Z,16.74
2023-03-30T13:01:21.553Z,17.32
2023-03-30T13:03:54.349Z,16.60
2023-03-30T13:06:28.736Z,16.44
2023-03-30T13:09:03.604Z,16.84
2023-03-30T13:11:50.117Z,16.15
2023-03-30T13:14:26.412Z,15.79
2023-03-30T13:16:53.256Z,16.19
2023-03-30T13:19:32.561Z,16.02
2023-03-30T13:22:11.620Z,16.01
2023-03-30T13:25:12.380Z,16.29
2023-03-30T13:27:41.961Z,15.47
2023-03-30T13:30:08.624Z,16.40
2023-03-30T13:33:11.567Z,16.54
2023-03-30T13:35:47.192Z,16.21
2023-03-30T13:38:16.925Z,16.48
2023-03-30T13:40:57.951Z,16.84
2023-03-30T13:43:48.569Z,17.03
2023-03-30T13:46:33.010Z,16.97
2023-03-30T13:49:17.737Z,16.59
2023-03-30T13:51:46.042Z,16.53
2023-03-30T13:54:27.943Z,16.67
2023-03-30T13:57:21.102Z,16.65
2023-03-30T13:59:54.072Z,15.90
2023-03-30T14:02:23.853Z,15.53
2023-03-30T14:04:50.628Z,15.31
2023-03-30T14:07:22.451Z,15.24
2023-03-30T14:10:19.943Z,15.41
2023-03-30T14:12:55.307Z,15.41
2023-03-30T14:15:33.924Z,15.41
2023-03-30T14:18:04.656Z,15.16
2023-03-30T14:20:31.634Z,15.48
2023-03-30T14:23:00.489Z,15.37
2023-03-30T14:25:32.012Z,15.56
2023-03-30T14:28:29.223Z,15.63
2023-03-30T14:31:05.069Z,15.36
2023-03-30T14:33:35.098Z,15.58
2023-03-30T14:36:02.682Z,15.28
2023-03-30T14:38:38.004Z,15.70
2023-03-30T14:41:09.252Z,16.26
2023-03-30T14:43:40.730Z,16.32
2023-03-30T14:46:12.482Z,16.61
2023-03-30T14:48:43.219Z,16.42
2023-03-30T14:51:27.977Z,16.54
2023-03-30T14:53:55.484Z,16.92
2023-03-30T14:56:23.474Z,16.61
2023-03-30T14:58:52.049Z,16.62
2023-03-30T15:01:32.671Z,16.70
2023-03-30T15:04:06.049Z,16.57
2023-03-30T15:06:32.904Z,16.49
2023-03-30T15:09:02.170Z,16.25
2023-03-30T15:11:31.909Z,16.14
2023-03-30T15:14:04.077Z,15.98
2023-03-30T15:16:33.680Z,16.09
2023-03-30T15:19:12.985Z,15.88
2023-03-30T15:21:40.606Z,15.75
2023-03-30T15:24:10.308Z,16.14
2023-03-30T15:26:43.589Z,15.77
2023-03-30T15:29:10.784Z,15.72
2023-03-30T15:31:37.671Z,15.81
2023-03-30T15:34:14.011Z,15.64
2023-03-30T15:36:41.078Z,15.51
2023-03-30T15:39:34.038Z,15.76
2023-03-30T15:42:04.562Z,16.00
2023-03-30T15:44:39.094Z,16.08
2023-03-30T15:47:12.318Z,15.69
2023-03-30T15:49:45.964Z,15.70
2023-03-30T15:52:19.683Z,15.97
2023-03-30T15:54:54.122Z,15.90
2023-03-30T15:57:30.232Z,15.82
2023-03-30T16:00:03.163Z,16.09
2023-03-30T16:02:32.899Z,16.26
2023-03-30T16:05:04.729Z,15.99
2023-03-30T16:07:32.297Z,16.07
2023-03-30T16:09:59.008Z,15.98
2023-03-30T16:12:28.145Z,16.25
2023-03-30T16:14:56.091Z,16.07
2023-03-30T16:17:22.997Z,15.81
2023-03-30T16:19:49.625Z,15.57
2023-03-30T16:22:16.633Z,15.91
2023-03-30T16:24:43.549Z,16.02
2023-03-30T16:27:14.161Z,15.57
2023-03-30T16:29:41.097Z,15.68
2023-03-30T16:32:08.005Z,15.74
2023-03-30T16:34:34.793Z,15.72
2023-03-30T16:37:02.077Z,15.45
2023-03-30T16:39:29.958Z,15.86
2023-03-30T16:41:57.053Z,15.72
2023-03-30T16:44:25.095Z,15.94
2023-03-30T16:46:52.406Z,15.53
2023-03-30T16:49:22.493Z,15.50
2023-03-30T16:51:50.024Z,15.72
2023-03-30T16:54:30.234Z,15.83
2023-03-30T16:56:59.753Z,15.34
2023-03-30T16:59:32.064Z,15.46
2023-03-30T17:01:59.540Z,15.25
2023-03-30T17:04:26.601Z,15.17
2023-03-30T17:06:56.282Z,15.28
2023-03-30T17:09:23.377Z,15.10
2023-03-30T17:11:50.472Z,15.17
2023-03-30T17:14:17.363Z,15.17
2023-03-30T17:16:44.118Z,14.97
2023-03-30T17:19:12.719Z,14.75
2023-03-30T17:21:42.806Z,14.78
2023-03-30T17:24:11.020Z,15.26
2023-03-30T17:26:37.975Z,14.81
2023-03-30T17:29:04.836Z,15.11
2023-03-30T17:31:31.614Z,15.19
2023-03-30T17:33:58.279Z,14.44
2023-03-30T17:36:26.138Z,14.69
2023-03-30T17:38:53.176Z,14.77
2023-03-30T17:41:20.755Z,14.50
2023-03-30T17:43:49.115Z,14.65
2023-03-30T17:46:18.296Z,14.64
2023-03-30T17:48:45.722Z,14.79
2023-03-30T17:51:12.413Z,14.63
2023-03-30T17:53:39.190Z,14.38
2023-03-30T17:56:06.442Z,14.42
2023-03-30T17:58:36.457Z,14.72
2023-03-30T18:01:08.588Z,14.64
2023-03-30T18:03:38.517Z,14.28
2023-03-30T18:06:05.973Z,14.24
2023-03-30T18:08:32.633Z,14.21
2023-03-30T18:11:00.772Z,13.85
2023-03-30T18:13:29.003Z,13.72
2023-03-30T18:15:58.600Z,13.11
2023-03-30T18:18:28.230Z,13.43
2023-03-30T18:21:03.610Z,13.06
2023-03-30T18:23:37.378Z,13.03
2023-03-30T18:26:12.231Z,13.07
2023-03-30T18:28:42.522Z,12.94
2023-03-30T18:31:09.438Z,12.96
2023-03-30T18:33:36.246Z,13.03
2023-03-30T18:36:06.124Z,13.09
2023-03-30T18:38:33.604Z,12.73
2023-03-30T18:41:01.425Z,12.88
2023-03-30T18:43:28.349Z,12.58
2023-03-30T18:46:00.058Z,12.85
2023-03-30T18:48:28.325Z,12.53
2023-03-30T18:50:55.767Z,12.75
2023-03-30T18:53:25.348Z,12.70
2023-03-30T18:55:54.554Z,12.71
2023-03-30T18:58:24.343Z,12.66
2023-03-30T19:00:52.494Z,12.51
2023-03-30T19:03:20.580Z,12.11
2023-03-30T19:05:47.689Z,12.26
2023-03-30T19:08:23.318Z,11.96
2023-03-30T19:10:53.163Z,12.23
2023-03-30T19:13:21.753Z,11.85
2023-03-30T19:15:50.043Z,11.98
2023-03-30T19:18:17.957Z,11.85
2023-03-30T19:20:45.528Z,11.81
2023-03-30T19:23:15.757Z,11.76
2023-03-30T19:25:43.545Z,11.35
2023-03-30T19:28:11.836Z,11.75
2023-03-30T19:30:39.899Z,11.66
2023-03-30T19:33:12.235Z,11.53
2023-03-30T19:35:43.881Z,11.57
2023-03-30T19:38:10.808Z,11.49
2023-03-30T19:40:41.106Z,11.61
2023-03-30T19:43:09.749Z,11.44
2023-03-30T19:45:36.669Z,11.23
2023-03-30T19:48:03.494Z,11.28
2023-03-30T19:50:30.634Z,11.00
2023-03-30T19:52:58.092Z,11.19
2023-03-30T19:55:25.033Z,10.91
2023-03-30T19:57:51.807Z,11.09
2023-03-30T20:00:19.356Z,11.27
2023-03-30T20:02:48.738Z,11.22
2023-03-30T20:05:16.749Z,10.80
2023-03-30T20:07:45.190Z,11.18
2023-03-30T20:10:14.885Z,11.06
2023-03-30T20:12:42.875Z,11.34
2023-03-30T20:15:10.057Z,10.96
2023-03-30T20:17:38.414Z,11.12
2023-03-30T20:20:09.280Z,11.23
2023-03-30T20:22:37.924Z,10.79
2023-03-30T20:25:08.479Z,10.88
2023-03-30T20:27:36.038Z,10.85
2023-03-30T20:30:04.514Z,11.10
2023-03-30T20:32:31.950Z,10.77
2023-03-30T20:34:58.731Z,10.72
2023-03-30T20:37:25.350Z,10.75
2023-03-30T20:39:52.189Z,10.66
2023-03-30T20:42:26.250Z,10.67
2023-03-30T20:44:53.648Z,10.79
2023-03-30T20:47:23.516Z,10.85
2023-03-30T20:49:50.376Z,10.68
2023-03-30T20:52:17.238Z,11.07
2023-03-30T20:54:44.781Z,10.92
2023-03-30T20:57:11.986Z,10.84
2023-03-30T20:59:39.604Z,10.86
2023-03-30T21:02:07.162Z,11.08
2023-03-30T21:04:34.193Z,10.71
2023-03-30T21:07:01.047Z,10.69
2023-03-30T21:09:28.849Z,10.86
2023-03-30T21:11:55.886Z,11.02
2023-03-30T21:14:24.244Z,10.79
2023-03-30T21:16:51.039Z,10.88
2023-03-30T21:19:17.769Z,11.02
2023-03-30T21:21:44.797Z,11.10
2023-03-30T21:24:12.271Z,11.11
2023-03-30T21:26:39.034Z,11.14
2023-03-30T21:29:05.842Z,11.27
2023-03-30T21:31:32.950Z,11.13
2023-03-30T21:34:00.105Z,11.08
2023-03-30T21:36:27.404Z,11.05
2023-03-30T21:38:56.234Z,11.21
2023-03-30T21:41:24.350Z,11.41
2023-03-30T21:43:51.287Z,11.16
2023-03-30T21:46:21.406Z,11.43
2023-03-30T21:48:52.570Z,11.45
2023-03-30T21:51:27.426Z,11.29
2023-03-30T21:53:56.163Z,11.45
2023-03-30T21:56:24.948Z,11.06
2023-03-30T21:58:54.717Z,11.39
2023-03-30T22:01:24.238Z,11.50
2023-03-30T22:03:52.097Z,11.33
2023-03-30T22:06:19.808Z,11.49
2023-03-30T22:08:47.111Z,11.28
2023-03-30T22:11:19.319Z,11.52
2023-03-30T22:13:48.349Z,11.28
2023-03-30T22:16:18.753Z,11.38
2023-03-30T22:18:46.443Z,11.42
2023-03-30T22:21:16.367Z,11.40
2023-03-30T22:23:43.464Z,10.96
2023-03-30T22:26:11.557Z,11.05
2023-03-30T22:28:38.228Z,10.74
2023-03-30T22:31:09.836Z,11.11
2023-03-30T22:33:36.727Z,10.78
2023-03-30T22:36:04.333Z,10.54
2023-03-30T22:38:31.448Z,10.42
2023-03-30T22:41:07.846Z,10.49
2023-03-30T22:43:35.989Z,10.45
2023-03-30T22:46:03.705Z,10.21
2023-03-30T22:48:30.627Z,10.13
2023-03-30T22:51:02.169Z,10.21
2023-03-30T22:53:32.832Z,9.95
2023-03-30T22:56:00.310Z,10.47
2023-03-30T22:58:27.649Z,10.28
2023-03-30T23:01:01.190Z,10.13
2023-03-30T23:03:28.287Z,10.29
2023-03-30T23:05:55.948Z,10.56
2023-03-30T23:08:24.001Z,10.35
2023-03-30T23:10:53.951Z,10.34
2023-03-30T23:13:20.544Z,10.13
2023-03-30T23:15:48.784Z,10.30
2023-03-30T23:18:16.122Z,10.64
2023-03-30T23:20:46.823Z,10.54
2023-03-30T23:23:14.565Z,10.66
2023-03-30T23:25:49.477Z,10.77
2023-03-30T23:28:16.655Z,10.52
2023-03-30T23:30:44.945Z,10.70
2023-03-30T23:33:12.165Z,10.63
2023-03-30T23:35:38.973Z,10.53
2023-03-30T23:38:05.638Z,10.51
2023-03-30T23:40:32.392Z,10.79
2023-03-30T23:42:59.047Z,10.39
2023-03-30T23:45:25.862Z,10.56
2023-03-30T23:47:52.705Z,10.52
2023-03-30T23:50:19.351Z,10.38
2023-03-30T23:52:46.679Z,10.52
2023-03-30T23:55:13.337Z,10.69
2023-03-30T23:57:40.046Z,10.57
